createdAt,value
2018-07-07T00:00:31.716Z,5.90
2018-07-07T00:02:59.951Z,6.00
2018-07-07T00:05:28.439Z,6.40
2018-07-07T00:07:56.512Z,6.63
2018-07-07T00:10:25.352Z,7.37
2018-07-07T00:12:53.572Z,6.90
2018-07-07T00:15:21.930Z,6.90
2018-07-07T00:17:50.298Z,6.50
2018-07-07T00:20:18.809Z,5.97
2018-07-07T00:22:47.379Z,6.73
2018-07-07T00:25:16.728Z,6.43
2018-07-07T00:27:45.447Z,6.63
2018-07-07T00:30:13.579Z,7.20
2018-07-07T00:32:41.615Z,6.97
2018-07-07T00:35:10.297Z,7.30
2018-07-07T00:37:38.527Z,6.33
2018-07-07T00:40:07.333Z,6.50
2018-07-07T00:42:41.816Z,6.33
2018-07-07T00:45:09.839Z,6.30
2018-07-07T00:47:37.893Z,6.30
2018-07-07T00:50:06.460Z,5.70
2018-07-07T00:52:34.389Z,6.30
2018-07-07T00:55:02.433Z,6.37
2018-07-07T00:57:30.561Z,6.60
2018-07-07T00:59:58.638Z,5.87
2018-07-07T01:02:26.797Z,5.73
2018-07-07T01:04:55.321Z,7.17
2018-07-07T01:07:23.953Z,6.83
2018-07-07T01:09:52.978Z,6.30
2018-07-07T01:12:20.947Z,7.40
2018-07-07T01:14:49.284Z,7.30
2018-07-07T01:17:17.536Z,6.93
2018-07-07T01:19:45.218Z,6.47
2018-07-07T01:22:13.595Z,6.20
2018-07-07T01:24:45.598Z,7.13
2018-07-07T01:27:13.611Z,7.07
2018-07-07T01:29:42.212Z,7.20
2018-07-07T01:32:10.446Z,6.87
2018-07-07T01:34:38.508Z,6.50
2018-07-07T01:37:06.603Z,7.93
2018-07-07T01:39:34.552Z,6.77
2018-07-07T01:42:02.653Z,6.90
2018-07-07T01:44:30.714Z,7.80
2018-07-07T01:46:58.652Z,7.17
2018-07-07T01:49:26.655Z,6.93
2018-07-07T01:51:54.897Z,8.17
2018-07-07T01:54:23.320Z,7.00
2018-07-07T01:56:51.536Z,6.93
2018-07-07T01:59:19.570Z,6.93
2018-07-07T02:01:47.509Z,6.63
2018-07-07T02:04:17.172Z,6.90
2018-07-07T02:06:45.084Z,6.83
2018-07-07T02:09:13.142Z,6.73
2018-07-07T02:11:41.147Z,6.33
2018-07-07T02:14:09.066Z,7.83
2018-07-07T02:16:37.506Z,6.93
2018-07-07T02:19:05.337Z,8.00
2018-07-07T02:21:33.407Z,7.50
2018-07-07T02:24:01.502Z,7.10
2018-07-07T02:26:29.842Z,7.03
2018-07-07T02:28:57.763Z,6.93
2018-07-07T02:31:25.677Z,7.30
2018-07-07T02:33:54.027Z,7.07
2018-07-07T02:36:21.913Z,7.20
2018-07-07T02:38:49.804Z,7.43
2018-07-07T02:41:17.802Z,6.87
2018-07-07T02:43:45.771Z,6.10
2018-07-07T02:46:13.810Z,6.53
2018-07-07T02:48:41.798Z,6.53
2018-07-07T02:51:09.869Z,5.97
2018-07-07T02:53:37.814Z,5.93
2018-07-07T02:56:05.787Z,6.30
2018-07-07T02:58:33.825Z,7.13
2018-07-07T03:01:01.826Z,7.27
2018-07-07T03:03:30.824Z,6.90
2018-07-07T03:05:58.824Z,7.57
2018-07-07T03:08:26.826Z,7.03
2018-07-07T03:10:55.196Z,7.43
2018-07-07T03:13:23.300Z,7.20
2018-07-07T03:15:51.232Z,7.07
2018-07-07T03:18:19.174Z,7.10
2018-07-07T03:20:47.312Z,7.17
2018-07-07T03:23:15.289Z,7.37
2018-07-07T03:25:43.277Z,7.23
2018-07-07T03:28:11.202Z,7.20
2018-07-07T03:30:39.180Z,7.50
2018-07-07T03:33:07.301Z,6.77
2018-07-07T03:35:35.434Z,7.57
2018-07-07T03:38:03.629Z,7.97
2018-07-07T03:40:31.574Z,6.97
2018-07-07T03:42:59.646Z,8.40
2018-07-07T03:45:27.385Z,7.40
2018-07-07T03:47:55.406Z,7.17
2018-07-07T03:50:23.403Z,7.73
2018-07-07T03:52:51.413Z,6.20
2018-07-07T03:55:19.402Z,7.70
2018-07-07T03:57:47.440Z,7.43
2018-07-07T04:00:15.787Z,7.73
2018-07-07T04:02:43.822Z,7.60
2018-07-07T04:05:11.814Z,7.87
2018-07-07T04:07:39.764Z,9.63
2018-07-07T04:10:07.833Z,7.03
2018-07-07T04:12:35.935Z,7.53
2018-07-07T04:15:04.331Z,7.83
2018-07-07T04:17:32.443Z,7.87
2018-07-07T04:20:00.541Z,7.47
2018-07-07T04:22:28.581Z,7.17
2018-07-07T04:24:56.530Z,7.37
2018-07-07T04:27:24.650Z,8.30
2018-07-07T04:29:52.634Z,7.33
2018-07-07T04:32:20.933Z,6.43
2018-07-07T04:34:48.934Z,6.90
2018-07-07T04:37:16.963Z,7.20
2018-07-07T04:39:44.902Z,6.53
2018-07-07T04:42:13.040Z,6.97
2018-07-07T04:44:40.914Z,9.57
2018-07-07T04:47:08.719Z,7.00
2018-07-07T04:49:36.872Z,9.40
2018-07-07T04:52:05.045Z,7.20
2018-07-07T04:54:32.934Z,7.13
2018-07-07T04:57:01.057Z,7.10
2018-07-07T04:59:29.003Z,7.63
2018-07-07T05:01:56.990Z,6.30
2018-07-07T05:04:25.236Z,6.63
2018-07-07T05:06:53.481Z,5.93
2018-07-07T05:09:21.745Z,7.13
2018-07-07T05:11:49.807Z,6.70
2018-07-07T05:14:17.755Z,7.90
2018-07-07T05:16:45.729Z,8.00
2018-07-07T05:19:13.812Z,5.57
2018-07-07T05:21:41.753Z,5.63
2018-07-07T05:24:09.683Z,5.90
2018-07-07T05:26:37.745Z,5.73
2018-07-07T05:29:05.654Z,6.93
2018-07-07T05:31:33.665Z,6.67
2018-07-07T05:34:01.799Z,7.43
2018-07-07T05:36:29.837Z,6.43
2018-07-07T05:38:57.949Z,6.07
2018-07-07T05:41:26.384Z,5.03
2018-07-07T05:43:54.399Z,4.93
2018-07-07T05:46:22.342Z,5.80
2018-07-07T05:48:50.301Z,5.63
2018-07-07T05:51:18.483Z,5.33
2018-07-07T05:53:46.432Z,5.87
2018-07-07T05:56:14.639Z,5.10
2018-07-07T05:58:42.650Z,6.63
2018-07-07T06:01:10.435Z,4.53
2018-07-07T06:03:40.050Z,6.13
2018-07-07T06:06:08.116Z,5.80
2018-07-07T06:08:35.956Z,4.67
2018-07-07T06:11:04.063Z,3.27
2018-07-07T06:13:32.204Z,4.80
2018-07-07T06:16:00.306Z,2.93
2018-07-07T06:18:28.315Z,2.93
2018-07-07T06:20:56.519Z,4.27
2018-07-07T06:23:24.440Z,6.27
2018-07-07T06:25:52.478Z,4.80
2018-07-07T06:28:20.434Z,4.50
2018-07-07T06:30:48.541Z,4.63
2018-07-07T06:33:16.626Z,5.47
2018-07-07T06:35:44.531Z,5.53
2018-07-07T06:38:12.426Z,8.53
2018-07-07T06:40:40.534Z,5.47
2018-07-07T06:43:08.648Z,6.87
2018-07-07T06:45:36.575Z,5.30
2018-07-07T06:48:04.526Z,3.63
2018-07-07T06:50:32.582Z,4.67
2018-07-07T06:53:00.568Z,5.00
2018-07-07T06:55:28.567Z,5.72
2018-07-07T06:57:56.635Z,4.33
2018-07-07T07:00:25.665Z,7.00
2018-07-07T07:02:53.469Z,4.27
2018-07-07T07:05:21.552Z,5.37
2018-07-07T07:07:49.419Z,6.58
2018-07-07T07:10:17.418Z,3.53
2018-07-07T07:12:45.376Z,4.20
2018-07-07T07:15:13.264Z,3.13
2018-07-07T07:17:41.183Z,3.93
2018-07-07T07:20:09.269Z,4.50
2018-07-07T07:22:37.452Z,4.07
2018-07-07T07:25:05.553Z,6.43
2018-07-07T07:27:33.556Z,3.07
2018-07-07T07:30:01.854Z,3.57
2018-07-07T07:32:30.055Z,4.33
2018-07-07T07:34:58.091Z,8.60
2018-07-07T07:37:26.508Z,3.70
2018-07-07T07:39:56.087Z,3.70
2018-07-07T07:42:26.564Z,4.53
2018-07-07T07:44:54.758Z,5.03
2018-07-07T07:47:24.954Z,3.13
2018-07-07T07:49:53.138Z,4.17
2018-07-07T07:52:22.143Z,3.60
2018-07-07T07:54:50.229Z,3.97
2018-07-07T07:57:18.600Z,3.60
2018-07-07T07:59:47.196Z,4.53
2018-07-07T08:02:15.363Z,2.87
2018-07-07T08:04:43.474Z,3.07
2018-07-07T08:07:11.569Z,3.43
2018-07-07T08:09:39.531Z,4.87
2018-07-07T08:12:07.543Z,4.67
2018-07-07T08:14:35.658Z,4.27
2018-07-07T08:17:03.693Z,3.77
2018-07-07T08:19:31.732Z,3.87
2018-07-07T08:22:00.904Z,4.40
2018-07-07T08:24:29.165Z,1.83
2018-07-07T08:26:57.076Z,4.03
2018-07-07T08:29:25.712Z,4.87
2018-07-07T08:31:53.884Z,4.77
2018-07-07T08:34:22.143Z,3.27
2018-07-07T08:36:50.273Z,2.77
2018-07-07T08:39:18.753Z,3.37
2018-07-07T08:41:46.810Z,4.50
2018-07-07T08:47:12.502Z,3.03
2018-07-07T08:49:40.793Z,2.40
2018-07-07T08:52:40.749Z,3.60
2018-07-07T08:55:08.978Z,3.47
2018-07-07T08:57:37.099Z,3.37
2018-07-07T09:00:05.415Z,2.60
2018-07-07T09:02:38.421Z,5.03
2018-07-07T09:05:06.589Z,3.43
2018-07-07T09:07:34.830Z,4.43
2018-07-07T09:10:02.962Z,4.20
2018-07-07T09:12:31.533Z,2.77
2018-07-07T09:15:00.970Z,3.70
2018-07-07T09:17:30.839Z,3.20
2018-07-07T09:19:59.557Z,11.50
2018-07-07T09:22:28.226Z,1.50
2018-07-07T09:24:57.522Z,4.47
2018-07-07T09:27:26.202Z,1.83
2018-07-07T09:29:56.625Z,4.03
2018-07-07T09:32:25.464Z,3.50
2018-07-07T09:34:54.477Z,3.97
2018-07-07T09:37:22.613Z,1.07
2018-07-07T09:39:50.767Z,2.73
2018-07-07T09:42:19.037Z,2.17
2018-07-07T09:44:47.794Z,3.43
2018-07-07T09:47:15.963Z,5.03
2018-07-07T09:49:45.597Z,2.50
2018-07-07T09:52:13.816Z,2.03
2018-07-07T09:54:42.514Z,1.83
2018-07-07T09:57:10.623Z,3.30
2018-07-07T09:59:52.137Z,3.30
2018-07-07T10:02:32.700Z,2.07
2018-07-07T10:05:01.044Z,3.60
2018-07-07T10:07:30.064Z,4.50
2018-07-07T10:09:58.659Z,2.63
2018-07-07T10:12:48.141Z,1.90
2018-07-07T10:15:17.706Z,1.10
2018-07-07T10:17:54.335Z,2.80
2018-07-07T10:20:49.898Z,2.17
2018-07-07T10:23:22.180Z,1.10
2018-07-07T10:26:00.311Z,6.03
2018-07-07T10:28:44.500Z,2.00
2018-07-07T10:31:27.742Z,2.43
2018-07-07T10:33:57.139Z,1.50
2018-07-07T10:36:26.823Z,2.20
2018-07-07T10:39:01.159Z,1.83
2018-07-07T10:41:29.738Z,2.43
2018-07-07T10:43:58.746Z,3.03
2018-07-07T10:46:31.779Z,4.50
2018-07-07T10:49:01.100Z,1.40
2018-07-07T10:51:33.471Z,2.33
2018-07-07T10:54:02.199Z,3.03
2018-07-07T10:56:30.859Z,2.93
2018-07-07T10:58:59.492Z,2.73
2018-07-07T11:01:29.933Z,4.97
2018-07-07T11:03:59.893Z,1.53
2018-07-07T11:06:29.255Z,2.33
2018-07-07T11:08:58.001Z,2.33
2018-07-07T11:11:27.788Z,3.10
2018-07-07T11:14:02.843Z,1.67
2018-07-07T11:16:34.034Z,1.93
2018-07-07T11:19:10.747Z,1.73
2018-07-07T11:21:39.046Z,2.57
2018-07-07T11:24:08.384Z,1.17
2018-07-07T11:26:36.965Z,1.77
2018-07-07T11:29:05.499Z,3.57
2018-07-07T11:31:34.306Z,2.13
2018-07-07T11:34:04.246Z,2.17
2018-07-07T11:36:32.976Z,0.73
2018-07-07T11:39:01.153Z,0.83
2018-07-07T11:41:29.395Z,0.70
2018-07-07T11:43:57.735Z,1.60
2018-07-07T11:46:25.983Z,1.03
2018-07-07T11:48:54.017Z,1.20
2018-07-07T11:51:22.060Z,0.90
2018-07-07T11:53:50.007Z,1.97
2018-07-07T11:56:18.018Z,0.60
2018-07-07T11:58:46.085Z,3.50
2018-07-07T12:01:13.803Z,2.23
2018-07-07T12:03:41.838Z,1.10
2018-07-07T12:06:09.922Z,0.50
2018-07-07T12:08:37.938Z,0.80
2018-07-07T12:11:06.160Z,1.57
2018-07-07T12:13:34.212Z,1.43
2018-07-07T12:16:02.564Z,1.40
2018-07-07T12:18:30.759Z,1.30
2018-07-07T12:20:59.280Z,0.90
2018-07-07T12:23:28.035Z,0.57
2018-07-07T12:25:56.299Z,1.93
2018-07-07T12:28:24.898Z,0.83
2018-07-07T12:30:54.951Z,1.97
2018-07-07T12:33:23.034Z,2.10
2018-07-07T12:35:51.203Z,1.17
2018-07-07T12:38:22.577Z,2.47
2018-07-07T12:40:50.881Z,0.73
2018-07-07T12:43:18.957Z,1.20
2018-07-07T12:45:47.075Z,0.70
2018-07-07T12:48:15.136Z,0.50
2018-07-07T12:50:43.002Z,0.50
2018-07-07T12:54:14.098Z,1.10
2018-07-07T12:56:42.040Z,0.43
2018-07-07T12:59:10.025Z,0.63
2018-07-07T13:01:38.097Z,0.87
2018-07-07T13:04:06.231Z,0.53
2018-07-07T13:06:34.157Z,0.73
2018-07-07T13:09:02.327Z,0.50
2018-07-07T13:11:30.603Z,1.17
2018-07-07T13:13:58.488Z,1.63
2018-07-07T13:16:26.763Z,0.90
2018-07-07T13:18:54.677Z,0.40
2018-07-07T13:21:22.805Z,1.33
2018-07-07T13:23:50.813Z,1.30
2018-07-07T13:26:19.099Z,1.50
2018-07-07T13:28:47.124Z,0.67
2018-07-07T13:31:19.114Z,1.47
2018-07-07T13:33:47.546Z,1.20
2018-07-07T13:36:15.502Z,1.37
2018-07-07T13:38:43.513Z,1.23
2018-07-07T13:41:11.521Z,0.70
2018-07-07T13:43:40.363Z,0.90
2018-07-07T13:46:16.386Z,1.00
2018-07-07T13:48:44.356Z,2.47
2018-07-07T13:51:12.382Z,1.17
2018-07-07T13:53:40.410Z,0.73
2018-07-07T13:56:09.160Z,0.83
2018-07-07T13:58:37.302Z,0.80
2018-07-07T14:01:07.614Z,1.03
2018-07-07T14:03:36.617Z,0.47
2018-07-07T14:06:04.915Z,1.47
2018-07-07T14:08:33.698Z,1.43
2018-07-07T14:11:02.826Z,0.80
2018-07-07T14:13:32.403Z,1.10
2018-07-07T14:16:00.457Z,1.00
2018-07-07T14:18:28.880Z,1.00
2018-07-07T14:20:59.466Z,0.87
2018-07-07T14:23:28.307Z,2.47
2018-07-07T14:25:57.020Z,1.43
2018-07-07T14:28:26.078Z,2.60
2018-07-07T14:30:54.159Z,0.93
2018-07-07T14:33:22.642Z,2.90
2018-07-07T14:35:50.985Z,1.17
2018-07-07T14:38:21.319Z,1.40
2018-07-07T14:41:01.346Z,2.67
2018-07-07T14:43:39.204Z,1.30
2018-07-07T14:46:07.519Z,1.77
2018-07-07T14:48:36.240Z,1.67
2018-07-07T14:51:05.362Z,2.90
2018-07-07T14:53:33.453Z,2.03
2018-07-07T14:56:01.613Z,2.63
2018-07-07T14:58:29.686Z,2.17
2018-07-07T15:00:58.744Z,3.27
2018-07-07T15:03:27.944Z,1.77
2018-07-07T15:05:56.838Z,2.73
2018-07-07T15:08:25.145Z,5.50
2018-07-07T15:10:53.613Z,2.63
2018-07-07T15:13:21.661Z,2.90
2018-07-07T15:15:49.904Z,1.30
2018-07-07T15:18:18.113Z,3.00
2018-07-07T15:20:46.350Z,2.93
2018-07-07T15:23:14.541Z,1.97
2018-07-07T15:25:42.596Z,1.37
2018-07-07T15:28:11.291Z,3.00
2018-07-07T15:30:39.379Z,5.00
2018-07-07T15:33:07.426Z,1.60
2018-07-07T15:35:35.352Z,3.23
2018-07-07T15:38:03.786Z,2.27
2018-07-07T15:40:32.272Z,2.13
2018-07-07T15:43:00.724Z,1.87
2018-07-07T15:45:29.119Z,1.80
2018-07-07T15:47:58.338Z,1.60
2018-07-07T15:50:27.321Z,1.83
2018-07-07T15:52:55.370Z,3.57
2018-07-07T15:55:23.340Z,2.63
2018-07-07T15:57:51.375Z,2.20
2018-07-07T16:00:19.259Z,5.20
2018-07-07T16:02:47.390Z,2.93
2018-07-07T16:05:15.338Z,2.77
2018-07-07T16:07:43.323Z,2.77
2018-07-07T16:10:11.292Z,2.23
2018-07-07T16:12:39.214Z,3.30
2018-07-07T16:15:07.342Z,1.43
2018-07-07T16:17:35.269Z,1.40
2018-07-07T16:20:03.262Z,3.37
2018-07-07T16:22:31.534Z,2.93
2018-07-07T16:24:59.482Z,2.53
2018-07-07T16:27:27.452Z,3.17
2018-07-07T16:29:55.463Z,3.20
2018-07-07T16:32:23.433Z,2.53
2018-07-07T16:34:51.524Z,3.40
2018-07-07T16:37:19.631Z,2.70
2018-07-07T16:39:48.117Z,3.20
2018-07-07T16:42:16.558Z,3.90
2018-07-07T16:44:44.669Z,2.43
2018-07-07T16:47:13.948Z,3.17
2018-07-07T16:49:43.016Z,1.97
2018-07-07T16:52:10.981Z,2.60
2018-07-07T16:54:41.293Z,2.67
2018-07-07T16:57:14.296Z,4.30
2018-07-07T16:59:42.277Z,2.40
2018-07-07T17:02:10.521Z,2.30
2018-07-07T17:04:38.682Z,2.63
2018-07-07T17:07:06.886Z,3.90
2018-07-07T17:09:35.233Z,3.17
2018-07-07T17:12:03.389Z,3.30
2018-07-07T17:14:31.789Z,2.67
2018-07-07T17:16:59.916Z,5.20
2018-07-07T17:19:28.414Z,4.83
2018-07-07T17:21:58.187Z,2.47
2018-07-07T17:24:30.167Z,2.80
2018-07-07T17:26:59.040Z,2.83
2018-07-07T17:29:28.017Z,3.17
2018-07-07T17:31:57.391Z,3.60
2018-07-07T17:34:26.861Z,4.20
2018-07-07T17:36:55.782Z,3.10
2018-07-07T17:39:24.079Z,2.83
2018-07-07T17:41:52.579Z,5.40
2018-07-07T17:44:20.566Z,2.53
2018-07-07T17:46:48.850Z,4.07
2018-07-07T17:49:17.599Z,2.97
2018-07-07T17:51:45.605Z,3.47
2018-07-07T17:54:13.677Z,2.43
2018-07-07T17:56:41.887Z,3.17
2018-07-07T17:59:09.926Z,5.03
2018-07-07T18:01:37.868Z,3.10
2018-07-07T18:04:06.107Z,2.33
2018-07-07T18:06:34.002Z,5.23
2018-07-07T18:09:02.067Z,3.53
2018-07-07T18:11:30.270Z,2.73
2018-07-07T18:13:58.541Z,3.47
2018-07-07T18:16:27.172Z,4.10
2018-07-07T18:18:55.837Z,2.13
2018-07-07T18:21:24.245Z,2.70
2018-07-07T18:23:52.308Z,3.80
2018-07-07T18:26:21.335Z,1.90
2018-07-07T18:28:49.242Z,4.53
2018-07-07T18:31:17.077Z,6.03
2018-07-07T18:33:45.034Z,4.13
2018-07-07T18:36:13.032Z,4.90
2018-07-07T18:38:41.127Z,2.73
2018-07-07T18:41:09.013Z,2.40
2018-07-07T18:43:37.171Z,2.47
2018-07-07T18:46:08.669Z,5.60
2018-07-07T18:48:36.725Z,1.80
2018-07-07T18:51:04.828Z,3.57
2018-07-07T18:53:32.859Z,2.07
2018-07-07T18:56:01.284Z,1.83
2018-07-07T18:58:29.894Z,2.53
2018-07-07T19:00:58.745Z,1.70
2018-07-07T19:03:27.493Z,2.40
2018-07-07T19:05:57.563Z,2.30
2018-07-07T19:08:26.971Z,5.03
2018-07-07T19:10:55.886Z,2.60
2018-07-07T19:13:23.833Z,2.60
2018-07-07T19:15:51.635Z,2.53
2018-07-07T19:18:19.534Z,2.40
2018-07-07T19:20:52.931Z,2.30
2018-07-07T19:23:26.826Z,2.70
2018-07-07T19:26:01.152Z,2.87
2018-07-07T19:28:30.671Z,3.33
2018-07-07T19:30:59.286Z,2.53
2018-07-07T19:33:34.315Z,1.70
2018-07-07T19:36:07.908Z,2.73
2018-07-07T19:38:35.976Z,4.00
2018-07-07T19:41:05.055Z,4.00
2018-07-07T19:43:33.351Z,4.00
2018-07-07T19:46:01.762Z,3.27
2018-07-07T19:48:31.097Z,3.70
2018-07-07T19:51:00.494Z,2.23
2018-07-07T19:53:28.836Z,3.23
2018-07-07T19:55:57.399Z,2.53
2018-07-07T19:58:26.813Z,3.87
2018-07-07T20:00:54.820Z,3.47
2018-07-07T20:03:22.993Z,4.13
2018-07-07T20:05:50.912Z,3.00
2018-07-07T20:08:18.683Z,2.30
2018-07-07T20:10:46.694Z,3.83
2018-07-07T20:13:14.732Z,4.60
2018-07-07T20:15:56.421Z,2.63
2018-07-07T20:18:34.679Z,4.37
2018-07-07T20:21:19.564Z,2.77
2018-07-07T20:23:47.618Z,4.87
2018-07-07T20:26:15.693Z,5.13
2018-07-07T20:28:49.221Z,2.90
2018-07-07T20:31:17.249Z,4.53
2018-07-07T20:33:45.276Z,5.57
2018-07-07T20:36:13.242Z,3.83
2018-07-07T20:38:41.204Z,5.93
2018-07-07T20:41:09.100Z,4.40
2018-07-07T20:43:36.952Z,4.43
2018-07-07T20:46:05.101Z,3.90
2018-07-07T20:48:34.085Z,3.73
2018-07-07T20:51:02.096Z,4.10
2018-07-07T20:53:30.134Z,5.53
2018-07-07T20:55:58.979Z,4.70
2018-07-07T20:58:28.556Z,7.27
2018-07-07T21:00:59.455Z,8.13
2018-07-07T21:03:33.704Z,9.60
2018-07-07T21:06:02.188Z,6.53
2018-07-07T21:08:31.142Z,9.73
2018-07-07T21:10:59.931Z,9.77
2018-07-07T21:13:28.587Z,8.73
2018-07-07T21:15:58.715Z,9.70
2018-07-07T21:18:28.740Z,7.63
2018-07-07T21:20:58.795Z,8.43
2018-07-07T21:23:29.538Z,13.23
2018-07-07T21:25:59.142Z,8.77
2018-07-07T21:28:29.039Z,7.93
2018-07-07T21:30:58.783Z,9.67
2018-07-07T21:33:29.627Z,9.20
2018-07-07T21:36:06.716Z,7.17
2018-07-07T21:38:34.670Z,6.30
2018-07-07T21:41:02.652Z,10.50
2018-07-07T21:43:31.323Z,8.97
2018-07-07T21:45:59.547Z,8.70
2018-07-07T21:48:27.748Z,9.00
2018-07-07T21:50:55.620Z,10.07
2018-07-07T21:53:23.652Z,8.83
2018-07-07T21:55:51.742Z,9.23
2018-07-07T21:58:25.865Z,10.40
2018-07-07T22:01:10.669Z,8.40
2018-07-07T22:03:44.389Z,8.77
2018-07-07T22:06:17.599Z,9.30
2018-07-07T22:08:45.866Z,7.37
2018-07-07T22:11:16.541Z,6.53
2018-07-07T22:13:54.149Z,6.67
2018-07-07T22:16:22.381Z,5.77
2018-07-07T22:18:55.251Z,4.93
2018-07-07T22:21:46.591Z,4.63
2018-07-07T22:24:15.482Z,4.93
2018-07-07T22:26:43.546Z,8.27
2018-07-07T22:29:11.470Z,5.20
2018-07-07T22:31:39.419Z,5.90
2018-07-07T22:34:07.571Z,6.10
2018-07-07T22:36:35.429Z,4.83
2018-07-07T22:39:03.813Z,5.33
2018-07-07T22:42:10.999Z,4.50
2018-07-07T22:44:39.923Z,5.73
2018-07-07T22:47:08.022Z,4.37
2018-07-07T22:49:36.110Z,5.73
2018-07-07T22:52:09.632Z,6.50
2018-07-07T22:54:39.162Z,5.13
2018-07-07T22:57:07.134Z,4.63
2018-07-07T22:59:35.142Z,4.40
2018-07-07T23:02:03.163Z,4.30
2018-07-07T23:04:31.425Z,4.47
2018-07-07T23:06:59.906Z,6.63
2018-07-07T23:09:28.033Z,5.00
2018-07-07T23:11:56.758Z,5.03
2018-07-07T23:14:24.935Z,4.90
2018-07-07T23:16:57.194Z,6.13
2018-07-07T23:19:25.208Z,7.03
2018-07-07T23:21:53.038Z,4.67
2018-07-07T23:24:20.948Z,5.00
2018-07-07T23:26:48.594Z,4.20
2018-07-07T23:29:16.424Z,4.57
2018-07-07T23:31:44.422Z,6.17
2018-07-07T23:34:12.310Z,5.33
2018-07-07T23:36:40.358Z,3.60
2018-07-07T23:39:08.358Z,4.63
2018-07-07T23:41:36.380Z,4.50
2018-07-07T23:44:05.945Z,4.70
2018-07-07T23:46:34.193Z,4.10
2018-07-07T23:49:02.193Z,5.70
2018-07-07T23:51:30.210Z,4.90
2018-07-07T23:53:58.451Z,4.67
2018-07-07T23:56:26.778Z,5.40
2018-07-07T23:58:55.341Z,5.90
